Time;durP1;ratioP1;P1;durP2;ratioP2;P2;SDS_P1;SDS_P2;PMS_P1;PMS_P2;Temp;Humidity;BMP_temperature;BMP_pressure;BME280_temperature;BME280_humidity;BME280_pressure;Samples;Min_cycle;Max_cycle;Signal;HPM_P1;HPM_P2
2023/08/29 00:00:31;;;;;;;12.05;6.57;;;;;;;;;;4991012;28;20056;-72
2023/08/29 00:03:03;;;;;;;15.20;6.05;;;;;;;;;;5002981;28;20038;-71
2023/08/29 00:05:29;;;;;;;8.63;5.43;;;;;;;;;;5008146;28;20036;-72
2023/08/29 00:07:55;;;;;;;11.27;5.95;;;;;;;;;;5007860;28;20034;-72
2023/08/29 00:10:21;;;;;;;8.23;5.18;;;;;;;;;;5002585;28;20038;-72
2023/08/29 00:12:47;;;;;;;11.02;6.00;;;;;;;;;;5008686;28;20036;-72
2023/08/29 00:15:13;;;;;;;11.15;5.60;;;;;;;;;;5008326;28;20399;-72
2023/08/29 00:17:38;;;;;;;12.65;6.53;;;;;;;;;;5010761;28;20029;-73
2023/08/29 00:20:05;;;;;;;8.27;5.72;;;;;;;;;;5009927;28;20033;-72
2023/08/29 00:22:31;;;;;;;15.82;6.32;;;;;;;;;;5008362;28;20139;-71
2023/08/29 00:24:57;;;;;;;13.95;5.90;;;;;;;;;;5007807;28;20134;-71
2023/08/29 00:27:23;;;;;;;19.23;6.88;;;;;;;;;;5004218;28;20034;-71
2023/08/29 00:29:50;;;;;;;15.40;6.50;;;;;;;;;;5013716;28;20034;-71
2023/08/29 00:32:15;;;;;;;15.98;5.72;;;;;;;;;;4997724;28;20785;-71
2023/08/29 00:34:41;;;;;;;10.68;6.72;;;;;;;;;;5007883;28;20062;-71
2023/08/29 00:37:07;;;;;;;9.02;6.63;;;;;;;;;;5007509;28;20014;-71
2023/08/29 00:39:33;;;;;;;11.43;6.90;;;;;;;;;;5012109;28;20029;-71
2023/08/29 00:42:00;;;;;;;10.63;6.40;;;;;;;;;;5005351;28;20438;-71
2023/08/29 00:44:26;;;;;;;13.30;7.00;;;;;;;;;;5020935;28;20041;-70
2023/08/29 00:46:52;;;;;;;11.07;6.88;;;;;;;;;;5006498;28;20056;-71
2023/08/29 00:49:25;;;;;;;14.25;6.80;;;;;;;;;;5005584;28;20038;-71
2023/08/29 00:51:51;;;;;;;12.88;6.65;;;;;;;;;;5011169;28;20033;-71
2023/08/29 00:54:18;;;;;;;17.77;7.60;;;;;;;;;;5008328;28;20029;-71
2023/08/29 00:56:45;;;;;;;14.82;6.85;;;;;;;;;;4998068;28;20040;-71
2023/08/29 00:59:11;;;;;;;12.02;7.28;;;;;;;;;;4991244;28;20034;-71
2023/08/29 01:01:38;;;;;;;10.55;7.18;;;;;;;;;;5026764;28;20034;-72
2023/08/29 01:04:04;;;;;;;13.50;7.20;;;;;;;;;;4990201;28;20289;-71
2023/08/29 01:06:31;;;;;;;13.15;6.93;;;;;;;;;;4990899;28;20030;-71
2023/08/29 01:08:58;;;;;;;12.70;6.93;;;;;;;;;;5012505;28;20026;-72
2023/08/29 01:11:44;;;;;;;11.82;6.60;;;;;;;;;;5001265;28;20542;-71
2023/08/29 01:14:36;;;;;;;8.93;6.13;;;;;;;;;;5015050;28;20052;-70
2023/08/29 01:17:45;;;;;;;12.18;6.22;;;;;;;;;;5001641;28;20029;-72
2023/08/29 01:20:13;;;;;;;13.05;6.47;;;;;;;;;;5009811;28;20175;-71
2023/08/29 01:22:44;;;;;;;9.52;5.95;;;;;;;;;;5022861;28;20030;-70
2023/08/29 01:25:18;;;;;;;10.45;5.97;;;;;;;;;;5008113;28;20069;-71
2023/08/29 01:27:45;;;;;;;11.50;5.82;;;;;;;;;;5007416;28;20038;-71
2023/08/29 01:30:12;;;;;;;9.07;5.53;;;;;;;;;;5011663;28;20026;-71
2023/08/29 01:32:39;;;;;;;17.33;6.60;;;;;;;;;;5003079;28;20080;-71
2023/08/29 01:35:08;;;;;;;11.32;6.18;;;;;;;;;;5008247;28;20053;-71
2023/08/29 01:37:33;;;;;;;9.45;5.57;;;;;;;;;;5014353;28;20119;-71
2023/08/29 01:39:59;;;;;;;15.63;7.15;;;;;;;;;;5012902;28;20029;-70
2023/08/29 01:42:25;;;;;;;11.52;7.05;;;;;;;;;;4999974;28;20060;-71
2023/08/29 01:44:50;;;;;;;17.55;7.38;;;;;;;;;;4997094;28;20026;-71
2023/08/29 01:47:16;;;;;;;12.02;6.85;;;;;;;;;;5006996;28;20502;-73
2023/08/29 01:49:42;;;;;;;9.27;6.07;;;;;;;;;;4995716;28;20041;-71
2023/08/29 01:52:08;;;;;;;12.20;6.03;;;;;;;;;;5012731;28;20523;-72
2023/08/29 01:54:34;;;;;;;14.48;6.28;;;;;;;;;;5008493;28;20069;-71
2023/08/29 01:57:01;;;;;;;9.18;5.95;;;;;;;;;;5009348;28;20041;-71
2023/08/29 01:59:31;;;;;;;12.32;5.65;;;;;;;;;;5003486;28;20315;-70
2023/08/29 02:01:57;;;;;;;16.35;6.72;;;;;;;;;;5016735;28;20044;-71
2023/08/29 02:04:23;;;;;;;12.05;5.60;;;;;;;;;;5024519;28;20029;-72
2023/08/29 02:06:49;;;;;;;13.20;5.82;;;;;;;;;;5011274;28;20030;-72
2023/08/29 02:09:16;;;;;;;11.73;6.68;;;;;;;;;;5001591;28;20037;-72
2023/08/29 02:11:42;;;;;;;13.35;6.03;;;;;;;;;;5007195;28;20504;-72
2023/08/29 02:14:11;;;;;;;12.05;6.68;;;;;;;;;;5000945;28;20093;-72
2023/08/29 02:16:38;;;;;;;14.63;6.70;;;;;;;;;;5014948;28;20121;-71
2023/08/29 02:19:04;;;;;;;17.40;7.18;;;;;;;;;;5000563;28;20038;-71
2023/08/29 02:21:30;;;;;;;11.13;6.95;;;;;;;;;;5009671;28;20263;-71
2023/08/29 02:23:57;;;;;;;13.55;7.43;;;;;;;;;;5000184;28;20049;-72
2023/08/29 02:26:23;;;;;;;21.02;6.90;;;;;;;;;;4994931;28;20038;-71
2023/08/29 02:28:52;;;;;;;23.92;7.28;;;;;;;;;;5008614;28;20029;-71
2023/08/29 02:31:17;;;;;;;21.10;7.80;;;;;;;;;;4994879;28;20030;-71
2023/08/29 02:33:47;;;;;;;12.70;7.43;;;;;;;;;;5006871;28;20017;-71
2023/08/29 02:36:12;;;;;;;11.68;6.75;;;;;;;;;;5014467;28;20034;-71
2023/08/29 02:38:38;;;;;;;12.88;6.50;;;;;;;;;;5009012;28;20026;-71
2023/08/29 02:41:05;;;;;;;14.85;6.97;;;;;;;;;;4996906;28;20034;-72
2023/08/29 02:43:31;;;;;;;13.57;6.30;;;;;;;;;;5004844;28;20557;-71
2023/08/29 02:45:58;;;;;;;11.32;6.65;;;;;;;;;;5010118;28;20073;-71
2023/08/29 02:48:24;;;;;;;12.25;6.88;;;;;;;;;;5022162;28;20519;-72
2023/08/29 02:50:51;;;;;;;12.40;7.50;;;;;;;;;;4995473;28;20053;-71
2023/08/29 02:53:17;;;;;;;12.00;7.93;;;;;;;;;;5004355;28;20057;-71
2023/08/29 02:55:43;;;;;;;10.70;6.95;;;;;;;;;;4995359;28;20041;-70
2023/08/29 02:58:09;;;;;;;10.52;7.70;;;;;;;;;;5009196;28;20034;-70
2023/08/29 03:00:35;;;;;;;10.90;6.50;;;;;;;;;;5005019;28;20492;-70
2023/08/29 03:03:01;;;;;;;13.57;7.20;;;;;;;;;;5004164;28;20038;-71
2023/08/29 03:05:26;;;;;;;12.93;7.15;;;;;;;;;;5009615;28;20034;-70
2023/08/29 03:07:52;;;;;;;16.83;8.45;;;;;;;;;;5012261;28;20040;-71
2023/08/29 03:10:19;;;;;;;12.77;7.82;;;;;;;;;;5009737;28;20061;-71
2023/08/29 03:12:46;;;;;;;14.50;7.13;;;;;;;;;;5007632;28;20084;-70
2023/08/29 03:15:13;;;;;;;15.15;8.20;;;;;;;;;;5000984;28;20037;-70
2023/08/29 03:17:42;;;;;;;15.77;7.20;;;;;;;;;;5020569;28;20026;-71
2023/08/29 03:20:09;;;;;;;12.82;7.63;;;;;;;;;;5002308;28;20072;-71
2023/08/29 03:22:35;;;;;;;14.82;7.30;;;;;;;;;;5002199;28;20077;-71
2023/08/29 03:25:01;;;;;;;15.07;7.00;;;;;;;;;;5005306;28;20046;-71
2023/08/29 03:27:27;;;;;;;15.05;7.25;;;;;;;;;;4988423;28;20030;-71
2023/08/29 03:29:53;;;;;;;14.77;8.63;;;;;;;;;;5014137;28;20030;-71
2023/08/29 03:32:18;;;;;;;18.30;9.05;;;;;;;;;;5009224;28;20079;-70
2023/08/29 03:34:44;;;;;;;15.60;8.25;;;;;;;;;;5007303;28;20438;-71
2023/08/29 03:37:10;;;;;;;10.95;7.65;;;;;;;;;;4994084;28;20117;-71
2023/08/29 03:39:37;;;;;;;18.27;8.50;;;;;;;;;;5023548;28;20120;-71
2023/08/29 03:42:03;;;;;;;15.45;8.95;;;;;;;;;;5009732;28;20100;-71
2023/08/29 03:44:29;;;;;;;11.35;7.38;;;;;;;;;;5003866;28;20041;-72
2023/08/29 03:46:59;;;;;;;11.90;8.00;;;;;;;;;;5013669;28;20029;-71
2023/08/29 03:49:25;;;;;;;23.85;8.57;;;;;;;;;;5021208;28;20076;-71
2023/08/29 03:51:50;;;;;;;13.50;7.43;;;;;;;;;;5007445;28;20057;-71
2023/08/29 03:54:16;;;;;;;16.20;8.15;;;;;;;;;;4995732;28;20080;-71
2023/08/29 03:56:43;;;;;;;12.60;8.27;;;;;;;;;;5004684;28;20049;-71
2023/08/29 03:59:09;;;;;;;14.50;7.43;;;;;;;;;;5009756;28;20042;-71
2023/08/29 04:01:35;;;;;;;15.00;8.18;;;;;;;;;;5004902;28;20040;-71
2023/08/29 04:04:03;;;;;;;15.35;8.48;;;;;;;;;;5007383;28;20103;-70
2023/08/29 04:06:32;;;;;;;22.02;8.38;;;;;;;;;;5016555;28;20419;-71
2023/08/29 04:08:58;;;;;;;11.27;6.53;;;;;;;;;;5026393;28;20041;-71
2023/08/29 04:11:23;;;;;;;15.70;7.10;;;;;;;;;;5003118;28;20041;-71
2023/08/29 04:13:49;;;;;;;12.57;6.85;;;;;;;;;;5011339;28;20533;-71
2023/08/29 04:16:15;;;;;;;15.30;7.57;;;;;;;;;;5018897;28;20041;-71
2023/08/29 04:18:41;;;;;;;13.73;7.40;;;;;;;;;;5018068;28;20057;-70
2023/08/29 04:21:07;;;;;;;15.15;7.20;;;;;;;;;;5022941;28;20021;-71
2023/08/29 04:23:33;;;;;;;16.90;8.00;;;;;;;;;;5022764;28;20034;-72
2023/08/29 04:25:59;;;;;;;13.38;7.85;;;;;;;;;;5011117;28;20021;-71
2023/08/29 04:28:26;;;;;;;13.05;6.93;;;;;;;;;;5024202;28;20466;-72
2023/08/29 04:30:51;;;;;;;12.70;7.25;;;;;;;;;;5018189;28;20121;-70
2023/08/29 04:33:17;;;;;;;17.38;8.15;;;;;;;;;;5011101;28;20060;-71
2023/08/29 04:35:43;;;;;;;11.80;7.38;;;;;;;;;;5006216;28;20550;-71
2023/08/29 04:38:09;;;;;;;12.45;7.00;;;;;;;;;;5006703;28;20025;-71
2023/08/29 04:40:35;;;;;;;17.98;7.22;;;;;;;;;;5012678;28;20129;-71
2023/08/29 04:43:01;;;;;;;19.60;6.80;;;;;;;;;;5032046;28;20410;-71
2023/08/29 04:45:27;;;;;;;13.27;6.78;;;;;;;;;;5014163;28;20132;-70
2023/08/29 04:47:53;;;;;;;11.85;7.10;;;;;;;;;;5019767;28;20355;-71
2023/08/29 04:50:20;;;;;;;11.02;7.15;;;;;;;;;;5002834;28;20033;-71
2023/08/29 04:52:46;;;;;;;20.95;6.88;;;;;;;;;;5020287;28;20033;-69
2023/08/29 04:55:13;;;;;;;16.77;7.32;;;;;;;;;;5014132;28;20160;-72
2023/08/29 04:57:38;;;;;;;13.43;7.25;;;;;;;;;;5022565;28;20033;-70
2023/08/29 05:00:06;;;;;;;20.58;7.25;;;;;;;;;;4990770;28;20044;-69
2023/08/29 05:02:33;;;;;;;18.65;8.02;;;;;;;;;;5000208;28;20064;-69
2023/08/29 05:04:59;;;;;;;18.98;8.30;;;;;;;;;;5020950;28;20080;-69
2023/08/29 05:07:24;;;;;;;23.58;8.00;;;;;;;;;;5020806;28;20065;-70
2023/08/29 05:09:50;;;;;;;14.40;7.47;;;;;;;;;;5035202;28;20379;-71
2023/08/29 05:12:16;;;;;;;18.92;7.40;;;;;;;;;;5005101;28;20493;-70
2023/08/29 05:14:42;;;;;;;14.75;6.95;;;;;;;;;;5021369;28;20021;-70
2023/08/29 05:17:09;;;;;;;20.48;6.93;;;;;;;;;;5025317;28;20046;-70
2023/08/29 05:19:36;;;;;;;13.25;6.40;;;;;;;;;;5035423;28;20108;-70
2023/08/29 05:22:01;;;;;;;16.50;7.65;;;;;;;;;;5021645;28;20459;-70
2023/08/29 05:24:27;;;;;;;17.52;7.38;;;;;;;;;;5022475;28;20608;-69
2023/08/29 05:26:53;;;;;;;14.15;6.93;;;;;;;;;;5008319;28;20117;-69
2023/08/29 05:29:19;;;;;;;12.88;6.63;;;;;;;;;;5018334;28;20563;-70
2023/08/29 05:31:44;;;;;;;13.27;6.95;;;;;;;;;;5019302;28;20042;-70
2023/08/29 05:34:10;;;;;;;9.85;6.18;;;;;;;;;;5019653;28;20117;-70
2023/08/29 05:36:36;;;;;;;9.85;6.25;;;;;;;;;;5012207;28;20439;-70
2023/08/29 05:39:02;;;;;;;13.98;6.20;;;;;;;;;;5011700;28;20018;-69
2023/08/29 05:41:31;;;;;;;12.57;6.35;;;;;;;;;;5023003;28;20446;-70
2023/08/29 05:43:57;;;;;;;18.27;8.32;;;;;;;;;;5020790;28;20045;-70
2023/08/29 05:46:22;;;;;;;12.27;6.03;;;;;;;;;;5012524;28;20399;-70
2023/08/29 05:48:48;;;;;;;11.63;5.45;;;;;;;;;;5017315;28;20487;-70
2023/08/29 05:51:14;;;;;;;12.25;5.60;;;;;;;;;;5015136;28;20027;-69
2023/08/29 05:53:40;;;;;;;9.93;4.68;;;;;;;;;;5015986;28;20183;-70
2023/08/29 05:56:07;;;;;;;10.90;5.38;;;;;;;;;;5016399;28;20019;-69
2023/08/29 05:58:33;;;;;;;8.43;4.85;;;;;;;;;;5013928;28;20117;-70
2023/08/29 06:00:59;;;;;;;12.18;6.15;;;;;;;;;;5020518;28;20072;-69
2023/08/29 06:03:25;;;;;;;12.82;5.53;;;;;;;;;;5019299;28;20594;-69
2023/08/29 06:05:52;;;;;;;13.80;5.40;;;;;;;;;;5020491;28;20163;-70
2023/08/29 06:08:18;;;;;;;12.55;6.85;;;;;;;;;;5022082;28;20453;-69
2023/08/29 06:10:43;;;;;;;9.50;5.40;;;;;;;;;;5021441;28;20021;-69
2023/08/29 06:13:09;;;;;;;10.65;5.80;;;;;;;;;;5026455;28;20033;-70
2023/08/29 06:15:35;;;;;;;11.00;5.60;;;;;;;;;;5009772;28;20032;-69
2023/08/29 06:18:01;;;;;;;15.15;4.80;;;;;;;;;;5021126;28;20175;-70
2023/08/29 06:20:27;;;;;;;10.75;5.10;;;;;;;;;;5022445;28;20028;-69
2023/08/29 06:22:56;;;;;;;10.48;5.88;;;;;;;;;;5021298;28;20139;-70
2023/08/29 06:25:22;;;;;;;13.05;5.75;;;;;;;;;;5026154;28;20022;-69
2023/08/29 06:27:48;;;;;;;12.18;5.80;;;;;;;;;;5019668;28;20037;-70
2023/08/29 06:30:14;;;;;;;19.75;5.55;;;;;;;;;;5022440;28;20194;-70
2023/08/29 06:32:41;;;;;;;10.13;5.25;;;;;;;;;;5021834;28;20034;-70
2023/08/29 06:35:09;;;;;;;10.90;6.10;;;;;;;;;;5016061;28;20022;-71
2023/08/29 06:37:36;;;;;;;9.40;4.78;;;;;;;;;;5014079;28;20038;-70
2023/08/29 06:40:04;;;;;;;11.85;5.40;;;;;;;;;;5023132;28;20025;-72
2023/08/29 06:42:34;;;;;;;10.63;5.18;;;;;;;;;;5011773;28;20112;-72
2023/08/29 06:44:59;;;;;;;9.35;4.97;;;;;;;;;;5016124;28;20032;-72
2023/08/29 06:47:25;;;;;;;12.38;5.07;;;;;;;;;;5025639;28;20531;-70
2023/08/29 06:49:54;;;;;;;10.07;4.88;;;;;;;;;;5023931;28;20021;-73
2023/08/29 06:52:21;;;;;;;9.10;4.38;;;;;;;;;;5022664;28;20136;-71
2023/08/29 06:54:47;;;;;;;12.88;4.88;;;;;;;;;;5021913;28;20159;-71
2023/08/29 06:57:13;;;;;;;10.90;5.05;;;;;;;;;;5022352;28;20038;-71
2023/08/29 06:59:39;;;;;;;9.60;4.53;;;;;;;;;;5020121;28;20422;-71
2023/08/29 07:02:04;;;;;;;6.72;4.57;;;;;;;;;;5009416;28;20053;-72
2023/08/29 07:04:30;;;;;;;6.25;4.75;;;;;;;;;;5025777;28;20028;-72
2023/08/29 07:06:59;;;;;;;17.10;5.25;;;;;;;;;;5024876;28;20037;-71
2023/08/29 07:09:27;;;;;;;11.77;5.18;;;;;;;;;;5024882;28;20041;-71
2023/08/29 07:11:53;;;;;;;11.40;5.03;;;;;;;;;;5022969;28;20041;-71
2023/08/29 07:14:20;;;;;;;12.93;6.22;;;;;;;;;;5027123;28;20026;-73
2023/08/29 07:16:46;;;;;;;15.63;6.10;;;;;;;;;;5033401;28;20123;-74
2023/08/29 07:19:12;;;;;;;12.02;6.20;;;;;;;;;;5033466;28;20049;-72
2023/08/29 07:21:38;;;;;;;16.00;5.90;;;;;;;;;;5013538;28;20069;-72
2023/08/29 07:24:04;;;;;;;14.75;5.80;;;;;;;;;;5015792;28;20467;-72
2023/08/29 07:26:31;;;;;;;18.52;10.10;;;;;;;;;;5024995;28;20038;-72
2023/08/29 07:28:56;;;;;;;13.60;6.05;;;;;;;;;;5022690;28;20049;-70
2023/08/29 07:31:22;;;;;;;10.65;5.60;;;;;;;;;;5039617;28;20427;-71
2023/08/29 07:33:50;;;;;;;9.70;5.35;;;;;;;;;;5016513;28;20079;-72
2023/08/29 07:36:16;;;;;;;10.00;5.40;;;;;;;;;;5012663;28;20079;-72
2023/08/29 07:38:42;;;;;;;13.25;5.50;;;;;;;;;;5011946;28;20021;-72
2023/08/29 07:41:08;;;;;;;9.43;5.00;;;;;;;;;;5024049;28;20049;-70
2023/08/29 07:43:34;;;;;;;11.75;5.63;;;;;;;;;;5031489;28;20030;-72
2023/08/29 07:46:00;;;;;;;10.48;4.55;;;;;;;;;;5031419;28;20488;-72
2023/08/29 07:48:26;;;;;;;14.25;4.63;;;;;;;;;;5032944;28;20044;-70
2023/08/29 07:50:52;;;;;;;9.05;4.47;;;;;;;;;;5023473;28;20401;-71
2023/08/29 07:53:17;;;;;;;10.73;4.45;;;;;;;;;;4998162;28;20472;-72
2023/08/29 07:55:44;;;;;;;10.43;4.80;;;;;;;;;;5011943;28;20036;-72
2023/08/29 07:58:10;;;;;;;10.32;4.32;;;;;;;;;;5013182;28;20030;-71
2023/08/29 08:00:36;;;;;;;10.80;4.47;;;;;;;;;;5012959;28;20030;-71
2023/08/29 08:03:03;;;;;;;11.50;4.40;;;;;;;;;;5013496;28;20033;-73
2023/08/29 08:05:30;;;;;;;14.55;5.00;;;;;;;;;;5012930;28;20034;-72
2023/08/29 08:07:56;;;;;;;9.38;4.47;;;;;;;;;;5013192;28;20444;-72
2023/08/29 08:10:22;;;;;;;16.45;5.60;;;;;;;;;;5012912;28;20407;-74
2023/08/29 08:12:49;;;;;;;10.00;5.05;;;;;;;;;;5012251;28;20088;-73
2023/08/29 08:15:20;;;;;;;12.40;5.00;;;;;;;;;;5012674;28;20073;-73
2023/08/29 08:17:46;;;;;;;11.93;6.00;;;;;;;;;;5012551;28;20399;-73
2023/08/29 08:20:12;;;;;;;14.77;5.85;;;;;;;;;;4998895;28;20095;-73
2023/08/29 08:22:39;;;;;;;11.80;5.40;;;;;;;;;;4993169;28;20181;-72
2023/08/29 08:25:06;;;;;;;18.60;7.22;;;;;;;;;;4992951;28;20037;-73
2023/08/29 08:27:31;;;;;;;10.07;5.35;;;;;;;;;;4992986;28;20097;-72
2023/08/29 08:29:57;;;;;;;11.30;5.43;;;;;;;;;;4993205;28;20030;-73
2023/08/29 08:32:24;;;;;;;9.80;5.50;;;;;;;;;;4993116;28;20038;-72
2023/08/29 08:34:50;;;;;;;10.23;5.50;;;;;;;;;;4991933;28;20497;-71
2023/08/29 08:37:15;;;;;;;12.38;5.70;;;;;;;;;;4992768;28;20197;-72
2023/08/29 08:39:41;;;;;;;12.48;5.97;;;;;;;;;;4993095;28;20045;-72
2023/08/29 08:42:11;;;;;;;12.02;4.88;;;;;;;;;;4993134;28;20039;-72
2023/08/29 08:44:37;;;;;;;11.88;5.45;;;;;;;;;;4993201;28;20499;-74
2023/08/29 08:47:05;;;;;;;13.60;5.85;;;;;;;;;;4993224;28;20086;-74
2023/08/29 08:49:31;;;;;;;18.63;5.38;;;;;;;;;;4991461;28;20030;-73
2023/08/29 08:51:58;;;;;;;14.30;5.05;;;;;;;;;;4992668;28;20031;-73
2023/08/29 08:54:25;;;;;;;12.80;5.20;;;;;;;;;;4992763;28;20022;-74
2023/08/29 08:56:51;;;;;;;10.40;5.13;;;;;;;;;;4991458;28;20038;-75
2023/08/29 08:59:17;;;;;;;7.75;4.10;;;;;;;;;;4992596;28;20030;-73
2023/08/29 09:01:44;;;;;;;9.52;4.40;;;;;;;;;;4990675;28;20043;-74
2023/08/29 09:04:09;;;;;;;11.77;5.07;;;;;;;;;;4991521;28;20112;-74
2023/08/29 09:06:35;;;;;;;11.98;4.95;;;;;;;;;;4991978;28;20038;-73
2023/08/29 09:09:23;;;;;;;11.25;4.75;;;;;;;;;;4991902;28;20446;-73
2023/08/29 09:11:53;;;;;;;12.05;4.97;;;;;;;;;;4992405;28;20065;-73
2023/08/29 09:14:21;;;;;;;8.25;4.53;;;;;;;;;;4992186;28;20030;-73
2023/08/29 09:16:57;;;;;;;13.77;5.07;;;;;;;;;;4991701;28;20030;-73
2023/08/29 09:19:25;;;;;;;11.32;4.28;;;;;;;;;;4992659;28;20043;-75
2023/08/29 09:21:51;;;;;;;10.95;4.47;;;;;;;;;;4991602;28;20038;-74
2023/08/29 09:24:33;;;;;;;12.80;4.82;;;;;;;;;;4991930;28;20088;-73
2023/08/29 09:27:05;;;;;;;;;;;;;;;;;;5007132;28;20032;-73
2023/08/29 09:29:30;;;;;;;11.45;4.97;;;;;;;;;;5011462;28;20023;-74
2023/08/29 09:31:58;;;;;;;10.95;4.95;;;;;;;;;;5013493;28;20054;-73
2023/08/29 09:34:27;;;;;;;15.30;5.55;;;;;;;;;;5022329;28;20025;-74
2023/08/29 09:36:54;;;;;;;14.32;4.95;;;;;;;;;;5029025;28;20056;-74
2023/08/29 09:39:21;;;;;;;8.25;4.53;;;;;;;;;;5023636;28;20048;-73
2023/08/29 09:42:07;;;;;;;9.23;4.72;;;;;;;;;;5025687;28;20551;-73
2023/08/29 09:44:38;;;;;;;10.15;4.72;;;;;;;;;;5012097;28;20143;-73
2023/08/29 09:47:05;;;;;;;7.65;4.32;;;;;;;;;;5013741;28;20488;-73
2023/08/29 09:49:42;;;;;;;12.15;4.30;;;;;;;;;;5012971;28;20046;-73
2023/08/29 09:52:09;;;;;;;10.52;5.00;;;;;;;;;;5010984;28;20121;-74
2023/08/29 09:54:43;;;;;;;10.52;4.22;;;;;;;;;;5010877;28;20062;-74
2023/08/29 09:57:10;;;;;;;6.72;4.40;;;;;;;;;;5011393;28;20038;-74
2023/08/29 09:59:39;;;;;;;7.68;3.83;;;;;;;;;;5026570;28;20038;-73
2023/08/29 10:02:04;;;;;;;9.38;4.40;;;;;;;;;;5026727;28;20034;-74
2023/08/29 10:04:34;;;;;;;8.32;4.07;;;;;;;;;;5011693;28;20251;-73
2023/08/29 10:07:01;;;;;;;11.75;5.00;;;;;;;;;;4997400;28;20117;-74
2023/08/29 10:09:28;;;;;;;8.52;4.45;;;;;;;;;;4991670;28;20037;-73
2023/08/29 10:11:54;;;;;;;7.10;4.03;;;;;;;;;;4991563;28;20049;-72
2023/08/29 10:14:22;;;;;;;8.32;4.60;;;;;;;;;;4992972;28;20018;-73
2023/08/29 10:16:49;;;;;;;12.32;4.32;;;;;;;;;;4995255;28;20038;-73
2023/08/29 10:19:15;;;;;;;13.68;4.43;;;;;;;;;;4995627;28;20053;-71
2023/08/29 10:21:42;;;;;;;8.48;4.05;;;;;;;;;;5002841;28;20041;-72
2023/08/29 10:24:11;;;;;;;7.18;4.30;;;;;;;;;;5014562;28;20030;-73
2023/08/29 10:26:38;;;;;;;7.75;4.30;;;;;;;;;;5014774;28;20041;-73
2023/08/29 10:29:05;;;;;;;6.63;4.38;;;;;;;;;;5013955;28;20036;-73
2023/08/29 10:31:34;;;;;;;10.20;4.53;;;;;;;;;;5014409;28;20304;-73
2023/08/29 10:34:03;;;;;;;10.90;4.28;;;;;;;;;;5011797;28;20125;-73
2023/08/29 10:36:30;;;;;;;8.15;4.15;;;;;;;;;;5014548;28;20507;-73
2023/08/29 10:38:57;;;;;;;6.70;3.70;;;;;;;;;;5013737;28;20041;-74
2023/08/29 10:41:23;;;;;;;8.88;4.57;;;;;;;;;;5011377;28;20026;-73
2023/08/29 10:43:53;;;;;;;9.43;4.03;;;;;;;;;;4993872;28;20544;-72
2023/08/29 10:46:20;;;;;;;5.22;3.65;;;;;;;;;;4994429;28;20502;-73
2023/08/29 10:48:49;;;;;;;6.40;3.63;;;;;;;;;;4993517;28;20042;-73
2023/08/29 10:51:19;;;;;;;7.60;3.83;;;;;;;;;;4994886;28;20102;-71
2023/08/29 10:53:52;;;;;;;6.28;4.22;;;;;;;;;;4994881;28;20050;-73
2023/08/29 10:56:24;;;;;;;7.40;4.22;;;;;;;;;;4993078;28;20034;-73
2023/08/29 10:58:50;;;;;;;13.15;4.50;;;;;;;;;;4993030;28;20069;-72
2023/08/29 11:01:26;;;;;;;13.05;4.30;;;;;;;;;;4992610;28;20072;-72
2023/08/29 11:03:53;;;;;;;7.75;4.18;;;;;;;;;;4994718;28;20065;-71
2023/08/29 11:06:26;;;;;;;9.00;4.63;;;;;;;;;;4994993;28;20480;-73
2023/08/29 11:09:20;;;;;;;9.43;4.40;;;;;;;;;;4994711;28;20254;-72
2023/08/29 11:12:09;;;;;;;10.75;4.93;;;;;;;;;;4988507;28;20042;-71
2023/08/29 11:14:55;;;;;;;6.20;4.20;;;;;;;;;;4994600;28;20042;-73
2023/08/29 11:17:25;;;;;;;12.60;3.95;;;;;;;;;;4994478;28;20031;-71
2023/08/29 11:19:52;;;;;;;9.63;4.30;;;;;;;;;;4994218;28;20106;-73
2023/08/29 11:22:22;;;;;;;8.80;3.90;;;;;;;;;;5004517;28;20038;-72
2023/08/29 11:24:55;;;;;;;11.70;4.90;;;;;;;;;;5009061;28;20392;-73
2023/08/29 11:27:23;;;;;;;6.30;3.92;;;;;;;;;;5003968;28;20035;-74
2023/08/29 11:29:49;;;;;;;7.68;4.10;;;;;;;;;;5025303;28;20060;-73
2023/08/29 11:32:19;;;;;;;9.70;4.20;;;;;;;;;;5025423;28;20034;-72
2023/08/29 11:34:50;;;;;;;11.40;4.20;;;;;;;;;;5012657;28;20037;-74
2023/08/29 11:37:16;;;;;;;10.57;4.07;;;;;;;;;;5021764;28;20109;-74
2023/08/29 11:39:53;;;;;;;9.40;4.10;;;;;;;;;;5019806;28;20053;-73
2023/08/29 11:42:20;;;;;;;10.35;3.78;;;;;;;;;;5013664;28;20042;-73
2023/08/29 11:44:47;;;;;;;7.15;3.75;;;;;;;;;;5013118;28;20041;-74
2023/08/29 11:47:16;;;;;;;5.05;3.50;;;;;;;;;;5013015;28;20052;-73
2023/08/29 11:49:46;;;;;;;4.47;3.05;;;;;;;;;;4998498;28;20032;-75
2023/08/29 11:52:16;;;;;;;6.57;3.38;;;;;;;;;;4992301;28;20038;-72
2023/08/29 11:54:50;;;;;;;6.55;3.90;;;;;;;;;;4993734;28;20040;-73
2023/08/29 11:57:16;;;;;;;5.40;3.70;;;;;;;;;;4993286;28;20053;-74
2023/08/29 11:59:43;;;;;;;6.88;3.47;;;;;;;;;;4993886;28;20109;-72
2023/08/29 12:02:16;;;;;;;7.68;3.55;;;;;;;;;;5010711;28;20029;-72
2023/08/29 12:04:42;;;;;;;;;;;;;;;;;;5021343;28;20050;-72
2023/08/29 12:07:15;;;;;;;8.98;3.40;;;;;;;;;;5014944;28;19909;-73
2023/08/29 12:09:43;;;;;;;7.68;3.60;;;;;;;;;;5012922;28;20379;-74
2023/08/29 12:12:32;;;;;;;6.60;3.50;;;;;;;;;;5012437;28;20022;-72
2023/08/29 12:15:00;;;;;;;9.82;3.80;;;;;;;;;;5013028;28;20104;-73
2023/08/29 12:17:42;;;;;;;9.50;3.45;;;;;;;;;;5017347;28;20022;-75
2023/08/29 12:20:12;;;;;;;9.40;3.50;;;;;;;;;;5028242;28;20030;-72
2023/08/29 12:22:38;;;;;;;7.60;3.50;;;;;;;;;;5012871;28;20099;-72
2023/08/29 12:25:05;;;;;;;6.22;3.90;;;;;;;;;;5020779;28;20044;-72
2023/08/29 12:27:31;;;;;;;5.78;3.40;;;;;;;;;;5024501;28;20025;-72
2023/08/29 12:29:57;;;;;;;7.70;3.38;;;;;;;;;;5018358;28;20522;-72
2023/08/29 12:32:27;;;;;;;7.22;3.53;;;;;;;;;;5023844;28;20096;-73
2023/08/29 12:34:54;;;;;;;8.65;3.70;;;;;;;;;;5018413;28;20483;-72
2023/08/29 12:37:20;;;;;;;4.53;3.15;;;;;;;;;;5011158;28;20030;-70
2023/08/29 12:39:46;;;;;;;6.35;3.67;;;;;;;;;;5012616;28;20054;-73
2023/08/29 12:42:12;;;;;;;7.93;3.28;;;;;;;;;;5012014;28;20076;-73
2023/08/29 12:44:39;;;;;;;5.95;3.58;;;;;;;;;;5012291;28;20042;-73
2023/08/29 12:47:04;;;;;;;9.05;3.60;;;;;;;;;;5012256;28;20100;-72
2023/08/29 12:49:31;;;;;;;5.50;3.65;;;;;;;;;;5011997;28;20112;-71
2023/08/29 12:51:57;;;;;;;7.05;3.40;;;;;;;;;;5011909;28;20091;-71
2023/08/29 12:54:23;;;;;;;8.15;4.22;;;;;;;;;;5012807;28;20034;-73
2023/08/29 12:56:49;;;;;;;5.70;3.58;;;;;;;;;;5009881;28;20022;-73
2023/08/29 12:59:15;;;;;;;4.57;3.40;;;;;;;;;;5012408;28;20042;-72
2023/08/29 13:01:40;;;;;;;8.45;3.42;;;;;;;;;;5012374;28;20029;-74
2023/08/29 13:04:06;;;;;;;6.82;3.92;;;;;;;;;;5025497;28;20196;-75
2023/08/29 13:06:32;;;;;;;6.40;3.90;;;;;;;;;;5011088;28;20148;-73
2023/08/29 13:08:58;;;;;;;6.30;3.90;;;;;;;;;;5009562;28;20121;-72
2023/08/29 13:11:24;;;;;;;7.20;3.75;;;;;;;;;;5011018;28;20527;-76
2023/08/29 13:13:51;;;;;;;7.53;4.10;;;;;;;;;;5008447;28;20052;-73
2023/08/29 13:16:19;;;;;;;5.30;3.47;;;;;;;;;;5011175;28;20026;-74
2023/08/29 13:18:45;;;;;;;6.78;3.55;;;;;;;;;;5012195;28;20125;-72
2023/08/29 13:21:11;;;;;;;6.20;3.95;;;;;;;;;;5010862;28;20106;-73
2023/08/29 13:23:37;;;;;;;6.78;3.80;;;;;;;;;;5020082;28;20033;-73
2023/08/29 13:26:06;;;;;;;7.53;3.70;;;;;;;;;;5014214;28;20392;-73
2023/08/29 13:28:32;;;;;;;4.88;3.50;;;;;;;;;;5019213;28;20559;-72
2023/08/29 13:30:58;;;;;;;6.45;3.60;;;;;;;;;;5019628;28;20049;-72
2023/08/29 13:33:24;;;;;;;7.57;3.25;;;;;;;;;;5013559;28;20045;-72
2023/08/29 13:35:50;;;;;;;7.93;3.35;;;;;;;;;;5023021;28;20021;-73
2023/08/29 13:38:16;;;;;;;6.88;3.45;;;;;;;;;;5006295;28;20037;-73
2023/08/29 13:40:42;;;;;;;6.45;3.45;;;;;;;;;;5021473;28;20022;-73
2023/08/29 13:43:08;;;;;;;6.18;3.55;;;;;;;;;;5022614;28;20032;-73
2023/08/29 13:45:34;;;;;;;8.00;3.60;;;;;;;;;;5017573;28;20029;-74
2023/08/29 13:48:00;;;;;;;7.95;3.83;;;;;;;;;;4999085;28;20036;-72
2023/08/29 13:50:26;;;;;;;7.07;3.85;;;;;;;;;;5023577;28;20101;-72
2023/08/29 13:52:52;;;;;;;4.93;3.40;;;;;;;;;;5015386;28;20069;-74
2023/08/29 13:55:17;;;;;;;5.18;3.47;;;;;;;;;;5023098;28;20025;-75
2023/08/29 13:57:43;;;;;;;7.13;3.67;;;;;;;;;;5022485;28;20417;-74
2023/08/29 14:00:11;;;;;;;9.32;4.00;;;;;;;;;;5023114;28;20021;-74
2023/08/29 14:02:39;;;;;;;6.65;3.33;;;;;;;;;;5023064;28;20288;-74
2023/08/29 14:05:06;;;;;;;5.53;3.50;;;;;;;;;;5025843;28;20026;-75
2023/08/29 14:07:32;;;;;;;4.97;3.72;;;;;;;;;;5024169;28;20380;-75
2023/08/29 14:09:58;;;;;;;7.63;3.70;;;;;;;;;;5008253;28;20029;-74
2023/08/29 14:12:23;;;;;;;4.93;3.33;;;;;;;;;;5006463;28;20461;-73
2023/08/29 14:14:50;;;;;;;6.28;3.55;;;;;;;;;;5013292;28;20542;-72
2023/08/29 14:17:16;;;;;;;5.10;3.50;;;;;;;;;;5014013;28;20396;-75
2023/08/29 14:19:42;;;;;;;6.70;3.80;;;;;;;;;;5014947;28;20022;-75
2023/08/29 14:22:08;;;;;;;4.40;3.40;;;;;;;;;;5022148;28;20167;-74
2023/08/29 14:24:33;;;;;;;7.28;3.40;;;;;;;;;;5014347;28;20108;-72
2023/08/29 14:26:59;;;;;;;6.43;3.45;;;;;;;;;;5014673;28;20034;-74
2023/08/29 14:29:33;;;;;;;10.30;3.83;;;;;;;;;;5014923;28;20384;-75
2023/08/29 14:31:59;;;;;;;6.03;3.38;;;;;;;;;;5014415;28;20038;-71
2023/08/29 14:34:27;;;;;;;9.35;3.67;;;;;;;;;;5015091;28;20032;-74
2023/08/29 14:36:53;;;;;;;9.55;3.95;;;;;;;;;;5014515;28;20034;-73